sensor_id;sensor_type;location;lat;lon;timestamp;P1;durP1;ratioP1;P2;durP2;ratioP2
3253;SDS011;1639;42.804;23.342;2023-03-04T00:02:18;13.13;;;3.60;;
3253;SDS011;1639;42.804;23.342;2023-03-04T00:04:44;5.97;;;3.10;;
3253;SDS011;1639;42.804;23.342;2023-03-04T00:07:09;5.87;;;2.37;;
3253;SDS011;1639;42.804;23.342;2023-03-04T00:09:35;11.73;;;6.37;;
3253;SDS011;1639;42.804;23.342;2023-03-04T00:12:00;5.80;;;2.87;;
3253;SDS011;1639;42.804;23.342;2023-03-04T00:14:26;7.60;;;2.70;;
3253;SDS011;1639;42.804;23.342;2023-03-04T00:16:51;8.03;;;2.10;;
3253;SDS011;1639;42.804;23.342;2023-03-04T00:19:16;5.50;;;2.27;;
3253;SDS011;1639;42.804;23.342;2023-03-04T00:21:42;5.70;;;2.70;;
3253;SDS011;1639;42.804;23.342;2023-03-04T00:24:07;5.70;;;2.27;;
3253;SDS011;1639;42.804;23.342;2023-03-04T00:26:33;8.03;;;1.97;;
3253;SDS011;1639;42.804;23.342;2023-03-04T00:28:58;6.23;;;1.80;;
3253;SDS011;1639;42.804;23.342;2023-03-04T00:31:24;5.30;;;1.90;;
3253;SDS011;1639;42.804;23.342;2023-03-04T00:33:49;6.97;;;3.07;;
3253;SDS011;1639;42.804;23.342;2023-03-04T00:36:14;5.37;;;1.67;;
3253;SDS011;1639;42.804;23.342;2023-03-04T00:38:40;5.40;;;2.13;;
3253;SDS011;1639;42.804;23.342;2023-03-04T00:41:05;5.20;;;1.50;;
3253;SDS011;1639;42.804;23.342;2023-03-04T00:43:31;5.10;;;1.20;;
3253;SDS011;1639;42.804;23.342;2023-03-04T00:45:56;8.13;;;1.57;;
3253;SDS011;1639;42.804;23.342;2023-03-04T00:48:23;5.43;;;1.87;;
3253;SDS011;1639;42.804;23.342;2023-03-04T00:50:48;11.33;;;2.17;;
3253;SDS011;1639;42.804;23.342;2023-03-04T00:53:15;5.17;;;1.50;;
3253;SDS011;1639;42.804;23.342;2023-03-04T00:55:41;9.93;;;2.67;;
3253;SDS011;1639;42.804;23.342;2023-03-04T00:58:06;5.23;;;1.83;;
3253;SDS011;1639;42.804;23.342;2023-03-04T01:00:31;6.97;;;3.10;;
3253;SDS011;1639;42.804;23.342;2023-03-04T01:02:57;5.60;;;1.97;;
3253;SDS011;1639;42.804;23.342;2023-03-04T01:05:23;6.20;;;2.70;;
3253;SDS011;1639;42.804;23.342;2023-03-04T01:07:48;20.13;;;3.07;;
3253;SDS011;1639;42.804;23.342;2023-03-04T01:10:14;8.53;;;3.17;;
3253;SDS011;1639;42.804;23.342;2023-03-04T01:12:39;6.40;;;2.83;;
3253;SDS011;1639;42.804;23.342;2023-03-04T01:15:06;6.30;;;3.10;;
3253;SDS011;1639;42.804;23.342;2023-03-04T01:17:36;6.20;;;2.83;;
3253;SDS011;1639;42.804;23.342;2023-03-04T01:20:02;5.17;;;1.57;;
3253;SDS011;1639;42.804;23.342;2023-03-04T01:22:29;6.10;;;2.80;;
3253;SDS011;1639;42.804;23.342;2023-03-04T01:24:54;8.20;;;2.60;;
3253;SDS011;1639;42.804;23.342;2023-03-04T01:27:20;6.40;;;2.80;;
3253;SDS011;1639;42.804;23.342;2023-03-04T01:29:45;6.60;;;3.60;;
3253;SDS011;1639;42.804;23.342;2023-03-04T01:32:10;5.50;;;1.93;;
3253;SDS011;1639;42.804;23.342;2023-03-04T01:34:36;7.50;;;2.97;;
3253;SDS011;1639;42.804;23.342;2023-03-04T01:37:01;8.03;;;3.17;;
3253;SDS011;1639;42.804;23.342;2023-03-04T01:39:27;14.00;;;3.57;;
3253;SDS011;1639;42.804;23.342;2023-03-04T01:41:52;5.87;;;1.93;;
3253;SDS011;1639;42.804;23.342;2023-03-04T01:44:18;6.30;;;2.80;;
3253;SDS011;1639;42.804;23.342;2023-03-04T01:46:46;7.40;;;3.23;;
3253;SDS011;1639;42.804;23.342;2023-03-04T01:49:14;9.50;;;4.57;;
3253;SDS011;1639;42.804;23.342;2023-03-04T01:51:45;5.83;;;2.03;;
3253;SDS011;1639;42.804;23.342;2023-03-04T01:54:13;10.23;;;2.80;;
3253;SDS011;1639;42.804;23.342;2023-03-04T01:56:40;7.17;;;3.50;;
3253;SDS011;1639;42.804;23.342;2023-03-04T01:59:15;5.90;;;2.10;;
3253;SDS011;1639;42.804;23.342;2023-03-04T02:01:55;14.00;;;2.57;;
3253;SDS011;1639;42.804;23.342;2023-03-04T02:04:24;11.10;;;3.70;;
3253;SDS011;1639;42.804;23.342;2023-03-04T02:06:52;6.43;;;2.30;;
3253;SDS011;1639;42.804;23.342;2023-03-04T02:09:18;5.77;;;2.33;;
3253;SDS011;1639;42.804;23.342;2023-03-04T02:11:45;7.30;;;3.07;;
3253;SDS011;1639;42.804;23.342;2023-03-04T02:14:12;7.20;;;3.07;;
3253;SDS011;1639;42.804;23.342;2023-03-04T02:16:38;6.33;;;3.03;;
3253;SDS011;1639;42.804;23.342;2023-03-04T02:19:05;9.87;;;2.50;;
3253;SDS011;1639;42.804;23.342;2023-03-04T02:21:37;5.20;;;1.50;;
3253;SDS011;1639;42.804;23.342;2023-03-04T02:26:39;5.93;;;2.33;;
3253;SDS011;1639;42.804;23.342;2023-03-04T02:29:07;5.60;;;1.87;;
3253;SDS011;1639;42.804;23.342;2023-03-04T02:31:36;5.30;;;1.70;;
3253;SDS011;1639;42.804;23.342;2023-03-04T02:34:05;9.00;;;3.10;;
3253;SDS011;1639;42.804;23.342;2023-03-04T02:36:35;5.60;;;2.40;;
3253;SDS011;1639;42.804;23.342;2023-03-04T02:39:06;6.50;;;1.57;;
3253;SDS011;1639;42.804;23.342;2023-03-04T02:41:36;8.67;;;3.00;;
3253;SDS011;1639;42.804;23.342;2023-03-04T02:44:02;5.60;;;2.17;;
3253;SDS011;1639;42.804;23.342;2023-03-04T02:46:27;6.60;;;3.20;;
3253;SDS011;1639;42.804;23.342;2023-03-04T02:48:53;5.30;;;1.77;;
3253;SDS011;1639;42.804;23.342;2023-03-04T02:51:18;7.33;;;2.80;;
3253;SDS011;1639;42.804;23.342;2023-03-04T02:53:44;5.53;;;2.00;;
3253;SDS011;1639;42.804;23.342;2023-03-04T02:56:09;5.70;;;1.67;;
3253;SDS011;1639;42.804;23.342;2023-03-04T02:58:35;5.70;;;1.83;;
3253;SDS011;1639;42.804;23.342;2023-03-04T03:01:02;6.30;;;2.23;;
3253;SDS011;1639;42.804;23.342;2023-03-04T03:03:28;10.60;;;2.37;;
3253;SDS011;1639;42.804;23.342;2023-03-04T03:05:54;6.00;;;1.80;;
3253;SDS011;1639;42.804;23.342;2023-03-04T03:08:19;6.03;;;1.70;;
3253;SDS011;1639;42.804;23.342;2023-03-04T03:10:45;9.97;;;1.83;;
3253;SDS011;1639;42.804;23.342;2023-03-04T03:13:10;5.60;;;2.57;;
3253;SDS011;1639;42.804;23.342;2023-03-04T03:15:35;5.70;;;2.13;;
3253;SDS011;1639;42.804;23.342;2023-03-04T03:18:06;5.30;;;1.90;;
3253;SDS011;1639;42.804;23.342;2023-03-04T03:20:32;7.90;;;2.77;;
3253;SDS011;1639;42.804;23.342;2023-03-04T03:22:57;6.23;;;2.63;;
3253;SDS011;1639;42.804;23.342;2023-03-04T03:25:22;5.60;;;2.43;;
3253;SDS011;1639;42.804;23.342;2023-03-04T03:27:48;7.47;;;2.27;;
3253;SDS011;1639;42.804;23.342;2023-03-04T03:30:13;5.47;;;2.03;;
3253;SDS011;1639;42.804;23.342;2023-03-04T03:32:39;5.60;;;1.80;;
3253;SDS011;1639;42.804;23.342;2023-03-04T03:35:05;6.10;;;2.47;;
3253;SDS011;1639;42.804;23.342;2023-03-04T03:37:30;6.97;;;2.83;;
3253;SDS011;1639;42.804;23.342;2023-03-04T03:39:56;8.23;;;3.30;;
3253;SDS011;1639;42.804;23.342;2023-03-04T03:42:21;5.80;;;2.47;;
3253;SDS011;1639;42.804;23.342;2023-03-04T03:44:46;5.70;;;2.23;;
3253;SDS011;1639;42.804;23.342;2023-03-04T03:47:14;5.40;;;1.87;;
3253;SDS011;1639;42.804;23.342;2023-03-04T03:49:39;6.67;;;2.47;;
3253;SDS011;1639;42.804;23.342;2023-03-04T03:52:05;5.73;;;2.90;;
3253;SDS011;1639;42.804;23.342;2023-03-04T03:54:32;6.50;;;3.13;;
3253;SDS011;1639;42.804;23.342;2023-03-04T03:56:58;5.27;;;1.70;;
3253;SDS011;1639;42.804;23.342;2023-03-04T03:59:23;6.10;;;3.27;;
3253;SDS011;1639;42.804;23.342;2023-03-04T04:01:48;6.20;;;2.80;;
3253;SDS011;1639;42.804;23.342;2023-03-04T04:04:14;5.80;;;2.03;;
3253;SDS011;1639;42.804;23.342;2023-03-04T04:06:39;5.10;;;1.30;;
3253;SDS011;1639;42.804;23.342;2023-03-04T04:09:05;7.10;;;2.70;;
3253;SDS011;1639;42.804;23.342;2023-03-04T04:11:30;6.10;;;1.87;;
3253;SDS011;1639;42.804;23.342;2023-03-04T04:13:56;5.07;;;1.50;;
3253;SDS011;1639;42.804;23.342;2023-03-04T04:16:21;6.13;;;2.27;;
3253;SDS011;1639;42.804;23.342;2023-03-04T04:18:46;5.90;;;2.37;;
3253;SDS011;1639;42.804;23.342;2023-03-04T04:21:12;5.83;;;2.40;;
3253;SDS011;1639;42.804;23.342;2023-03-04T04:23:38;6.07;;;2.50;;
3253;SDS011;1639;42.804;23.342;2023-03-04T04:26:03;5.30;;;1.70;;
3253;SDS011;1639;42.804;23.342;2023-03-04T04:28:29;16.60;;;3.70;;
3253;SDS011;1639;42.804;23.342;2023-03-04T04:30:54;5.80;;;2.50;;
3253;SDS011;1639;42.804;23.342;2023-03-04T04:33:20;6.27;;;2.57;;
3253;SDS011;1639;42.804;23.342;2023-03-04T04:35:45;6.23;;;2.43;;
3253;SDS011;1639;42.804;23.342;2023-03-04T04:38:10;6.17;;;1.93;;
3253;SDS011;1639;42.804;23.342;2023-03-04T04:40:36;6.43;;;2.70;;
3253;SDS011;1639;42.804;23.342;2023-03-04T04:43:02;7.13;;;1.90;;
3253;SDS011;1639;42.804;23.342;2023-03-04T04:45:27;5.50;;;2.23;;
3253;SDS011;1639;42.804;23.342;2023-03-04T04:47:53;8.90;;;3.00;;
3253;SDS011;1639;42.804;23.342;2023-03-04T04:50:21;8.97;;;2.80;;
3253;SDS011;1639;42.804;23.342;2023-03-04T04:52:47;5.87;;;1.83;;
3253;SDS011;1639;42.804;23.342;2023-03-04T04:55:12;5.67;;;1.90;;
3253;SDS011;1639;42.804;23.342;2023-03-04T04:57:38;6.03;;;2.60;;
3253;SDS011;1639;42.804;23.342;2023-03-04T05:00:04;10.43;;;3.30;;
3253;SDS011;1639;42.804;23.342;2023-03-04T05:02:30;6.33;;;2.90;;
3253;SDS011;1639;42.804;23.342;2023-03-04T05:05:00;5.20;;;1.93;;
3253;SDS011;1639;42.804;23.342;2023-03-04T05:07:29;5.40;;;2.23;;
3253;SDS011;1639;42.804;23.342;2023-03-04T05:09:54;6.40;;;3.67;;
3253;SDS011;1639;42.804;23.342;2023-03-04T05:12:20;6.23;;;2.73;;
3253;SDS011;1639;42.804;23.342;2023-03-04T05:14:45;5.50;;;2.20;;
3253;SDS011;1639;42.804;23.342;2023-03-04T05:17:10;8.47;;;4.40;;
3253;SDS011;1639;42.804;23.342;2023-03-04T05:19:36;5.90;;;3.27;;
3253;SDS011;1639;42.804;23.342;2023-03-04T05:22:01;5.60;;;2.30;;
3253;SDS011;1639;42.804;23.342;2023-03-04T05:24:27;11.17;;;4.53;;
3253;SDS011;1639;42.804;23.342;2023-03-04T05:26:52;7.33;;;3.70;;
3253;SDS011;1639;42.804;23.342;2023-03-04T05:29:18;9.87;;;3.83;;
3253;SDS011;1639;42.804;23.342;2023-03-04T05:31:43;12.83;;;3.80;;
3253;SDS011;1639;42.804;23.342;2023-03-04T05:34:08;7.77;;;4.20;;
3253;SDS011;1639;42.804;23.342;2023-03-04T05:36:34;6.23;;;2.47;;
3253;SDS011;1639;42.804;23.342;2023-03-04T05:38:59;10.30;;;2.37;;
3253;SDS011;1639;42.804;23.342;2023-03-04T05:41:25;5.97;;;2.00;;
3253;SDS011;1639;42.804;23.342;2023-03-04T05:43:50;9.00;;;2.73;;
3253;SDS011;1639;42.804;23.342;2023-03-04T05:46:16;10.40;;;2.93;;
3253;SDS011;1639;42.804;23.342;2023-03-04T05:48:42;6.83;;;3.23;;
3253;SDS011;1639;42.804;23.342;2023-03-04T05:51:09;7.53;;;2.67;;
3253;SDS011;1639;42.804;23.342;2023-03-04T05:53:35;18.87;;;3.70;;
3253;SDS011;1639;42.804;23.342;2023-03-04T05:56:14;7.93;;;2.93;;
3253;SDS011;1639;42.804;23.342;2023-03-04T05:58:42;6.53;;;2.80;;
3253;SDS011;1639;42.804;23.342;2023-03-04T06:01:07;7.13;;;2.87;;
3253;SDS011;1639;42.804;23.342;2023-03-04T06:03:33;6.07;;;2.53;;
3253;SDS011;1639;42.804;23.342;2023-03-04T06:05:59;8.23;;;1.93;;
3253;SDS011;1639;42.804;23.342;2023-03-04T06:08:24;7.10;;;2.80;;
3253;SDS011;1639;42.804;23.342;2023-03-04T06:10:51;5.63;;;2.23;;
3253;SDS011;1639;42.804;23.342;2023-03-04T06:13:18;5.17;;;1.50;;
3253;SDS011;1639;42.804;23.342;2023-03-04T06:15:44;6.00;;;1.63;;
3253;SDS011;1639;42.804;23.342;2023-03-04T06:18:09;5.40;;;1.50;;
3253;SDS011;1639;42.804;23.342;2023-03-04T06:20:35;5.93;;;3.27;;
3253;SDS011;1639;42.804;23.342;2023-03-04T06:23:01;5.30;;;1.83;;
3253;SDS011;1639;42.804;23.342;2023-03-04T06:25:26;5.40;;;1.50;;
3253;SDS011;1639;42.804;23.342;2023-03-04T06:27:52;7.63;;;4.17;;
3253;SDS011;1639;42.804;23.342;2023-03-04T06:30:18;9.50;;;5.13;;
3253;SDS011;1639;42.804;23.342;2023-03-04T06:32:43;7.00;;;2.77;;
3253;SDS011;1639;42.804;23.342;2023-03-04T06:35:10;6.30;;;2.73;;
3253;SDS011;1639;42.804;23.342;2023-03-04T06:37:36;6.23;;;2.50;;
3253;SDS011;1639;42.804;23.342;2023-03-04T06:40:02;6.23;;;3.20;;
3253;SDS011;1639;42.804;23.342;2023-03-04T06:42:28;14.23;;;2.97;;
3253;SDS011;1639;42.804;23.342;2023-03-04T06:44:53;5.97;;;2.50;;
3253;SDS011;1639;42.804;23.342;2023-03-04T06:47:18;6.33;;;3.20;;
3253;SDS011;1639;42.804;23.342;2023-03-04T06:49:44;5.47;;;2.03;;
3253;SDS011;1639;42.804;23.342;2023-03-04T06:52:09;11.47;;;3.10;;
3253;SDS011;1639;42.804;23.342;2023-03-04T06:54:36;10.60;;;3.20;;
3253;SDS011;1639;42.804;23.342;2023-03-04T06:57:02;9.63;;;3.67;;
3253;SDS011;1639;42.804;23.342;2023-03-04T06:59:28;6.47;;;3.80;;
3253;SDS011;1639;42.804;23.342;2023-03-04T07:01:53;7.23;;;2.47;;
3253;SDS011;1639;42.804;23.342;2023-03-04T07:04:18;10.03;;;2.47;;
3253;SDS011;1639;42.804;23.342;2023-03-04T07:06:44;8.50;;;2.87;;
3253;SDS011;1639;42.804;23.342;2023-03-04T07:09:09;5.87;;;2.97;;
3253;SDS011;1639;42.804;23.342;2023-03-04T07:11:35;6.10;;;2.00;;
3253;SDS011;1639;42.804;23.342;2023-03-04T07:14:00;9.40;;;3.93;;
3253;SDS011;1639;42.804;23.342;2023-03-04T07:16:26;5.37;;;1.80;;
3253;SDS011;1639;42.804;23.342;2023-03-04T07:18:51;6.63;;;2.43;;
3253;SDS011;1639;42.804;23.342;2023-03-04T07:21:17;8.60;;;3.30;;
3253;SDS011;1639;42.804;23.342;2023-03-04T07:23:43;13.20;;;4.90;;
3253;SDS011;1639;42.804;23.342;2023-03-04T07:26:09;11.20;;;5.20;;
3253;SDS011;1639;42.804;23.342;2023-03-04T07:28:35;11.90;;;1.90;;
3253;SDS011;1639;42.804;23.342;2023-03-04T07:33:55;6.13;;;3.00;;
3253;SDS011;1639;42.804;23.342;2023-03-04T07:36:31;9.93;;;3.10;;
3253;SDS011;1639;42.804;23.342;2023-03-04T07:38:57;9.30;;;2.80;;
3253;SDS011;1639;42.804;23.342;2023-03-04T07:41:23;9.93;;;2.50;;
3253;SDS011;1639;42.804;23.342;2023-03-04T07:43:50;6.27;;;3.10;;
3253;SDS011;1639;42.804;23.342;2023-03-04T07:46:17;9.23;;;2.77;;
3253;SDS011;1639;42.804;23.342;2023-03-04T07:48:43;6.53;;;2.63;;
3253;SDS011;1639;42.804;23.342;2023-03-04T07:51:10;15.47;;;3.53;;
3253;SDS011;1639;42.804;23.342;2023-03-04T07:53:44;7.30;;;2.27;;
3253;SDS011;1639;42.804;23.342;2023-03-04T07:56:12;5.67;;;1.80;;
3253;SDS011;1639;42.804;23.342;2023-03-04T07:58:40;6.60;;;2.77;;
3253;SDS011;1639;42.804;23.342;2023-03-04T08:01:07;9.13;;;2.80;;
3253;SDS011;1639;42.804;23.342;2023-03-04T08:03:34;5.43;;;1.93;;
3253;SDS011;1639;42.804;23.342;2023-03-04T08:05:59;5.33;;;1.93;;
3253;SDS011;1639;42.804;23.342;2023-03-04T08:08:29;5.60;;;1.83;;
3253;SDS011;1639;42.804;23.342;2023-03-04T08:10:54;6.60;;;3.53;;
3253;SDS011;1639;42.804;23.342;2023-03-04T08:13:20;15.97;;;3.03;;
3253;SDS011;1639;42.804;23.342;2023-03-04T08:15:45;6.67;;;2.13;;
3253;SDS011;1639;42.804;23.342;2023-03-04T08:18:11;5.57;;;2.40;;
3253;SDS011;1639;42.804;23.342;2023-03-04T08:20:36;5.30;;;1.50;;
3253;SDS011;1639;42.804;23.342;2023-03-04T08:23:06;6.17;;;3.17;;
3253;SDS011;1639;42.804;23.342;2023-03-04T08:25:31;6.33;;;1.97;;
3253;SDS011;1639;42.804;23.342;2023-03-04T08:27:57;6.10;;;1.80;;
3253;SDS011;1639;42.804;23.342;2023-03-04T08:30:23;5.13;;;1.57;;
3253;SDS011;1639;42.804;23.342;2023-03-04T08:32:48;5.40;;;2.00;;
3253;SDS011;1639;42.804;23.342;2023-03-04T08:35:14;7.03;;;1.77;;
3253;SDS011;1639;42.804;23.342;2023-03-04T08:37:39;5.93;;;2.70;;
3253;SDS011;1639;42.804;23.342;2023-03-04T08:40:05;5.90;;;1.83;;
3253;SDS011;1639;42.804;23.342;2023-03-04T08:42:30;7.13;;;3.50;;
3253;SDS011;1639;42.804;23.342;2023-03-04T08:44:56;5.50;;;1.97;;
3253;SDS011;1639;42.804;23.342;2023-03-04T08:47:21;5.17;;;1.57;;
3253;SDS011;1639;42.804;23.342;2023-03-04T08:49:47;4.97;;;1.23;;
3253;SDS011;1639;42.804;23.342;2023-03-04T08:52:12;6.90;;;1.40;;
3253;SDS011;1639;42.804;23.342;2023-03-04T08:54:37;5.30;;;2.10;;
3253;SDS011;1639;42.804;23.342;2023-03-04T08:57:03;52.50;;;3.13;;
3253;SDS011;1639;42.804;23.342;2023-03-04T08:59:28;5.10;;;1.40;;
3253;SDS011;1639;42.804;23.342;2023-03-04T09:01:53;5.10;;;1.50;;
3253;SDS011;1639;42.804;23.342;2023-03-04T09:04:19;6.40;;;2.40;;
3253;SDS011;1639;42.804;23.342;2023-03-04T09:06:44;14.60;;;2.30;;
3253;SDS011;1639;42.804;23.342;2023-03-04T09:09:10;5.27;;;1.80;;
3253;SDS011;1639;42.804;23.342;2023-03-04T09:11:35;5.67;;;1.30;;
3253;SDS011;1639;42.804;23.342;2023-03-04T09:14:00;5.00;;;1.30;;
3253;SDS011;1639;42.804;23.342;2023-03-04T09:16:26;5.17;;;1.47;;
3253;SDS011;1639;42.804;23.342;2023-03-04T09:18:51;5.30;;;1.70;;
3253;SDS011;1639;42.804;23.342;2023-03-04T09:21:17;5.20;;;1.60;;
3253;SDS011;1639;42.804;23.342;2023-03-04T09:23:42;6.53;;;2.20;;
3253;SDS011;1639;42.804;23.342;2023-03-04T09:28:40;5.03;;;1.37;;
3253;SDS011;1639;42.804;23.342;2023-03-04T09:31:12;5.50;;;2.20;;
3253;SDS011;1639;42.804;23.342;2023-03-04T09:33:39;5.30;;;1.33;;
3253;SDS011;1639;42.804;23.342;2023-03-04T09:36:07;5.43;;;1.50;;
3253;SDS011;1639;42.804;23.342;2023-03-04T09:38:33;5.07;;;1.53;;
3253;SDS011;1639;42.804;23.342;2023-03-04T09:40:59;5.23;;;1.60;;
3253;SDS011;1639;42.804;23.342;2023-03-04T09:43:30;5.47;;;1.60;;
3253;SDS011;1639;42.804;23.342;2023-03-04T09:46:10;5.13;;;1.67;;
3253;SDS011;1639;42.804;23.342;2023-03-04T09:48:43;11.43;;;2.07;;
3253;SDS011;1639;42.804;23.342;2023-03-04T09:56:50;5.83;;;2.37;;
3253;SDS011;1639;42.804;23.342;2023-03-04T10:01:54;5.50;;;2.13;;
3253;SDS011;1639;42.804;23.342;2023-03-04T10:04:37;6.93;;;2.70;;
3253;SDS011;1639;42.804;23.342;2023-03-04T10:07:12;6.70;;;3.37;;
3253;SDS011;1639;42.804;23.342;2023-03-04T10:09:46;6.67;;;2.40;;
3253;SDS011;1639;42.804;23.342;2023-03-04T10:12:19;5.33;;;2.10;;
3253;SDS011;1639;42.804;23.342;2023-03-04T10:17:37;5.00;;;1.40;;
3253;SDS011;1639;42.804;23.342;2023-03-04T10:20:26;5.50;;;2.30;;
3253;SDS011;1639;42.804;23.342;2023-03-04T10:22:57;5.30;;;1.93;;
3253;SDS011;1639;42.804;23.342;2023-03-04T10:25:40;5.90;;;2.03;;
3253;SDS011;1639;42.804;23.342;2023-03-04T10:28:11;7.67;;;2.50;;
3253;SDS011;1639;42.804;23.342;2023-03-04T10:33:21;5.40;;;2.07;;
3253;SDS011;1639;42.804;23.342;2023-03-04T10:38:40;13.03;;;2.50;;
3253;SDS011;1639;42.804;23.342;2023-03-04T10:41:13;5.20;;;1.83;;
3253;SDS011;1639;42.804;23.342;2023-03-04T10:43:41;8.17;;;2.03;;
3253;SDS011;1639;42.804;23.342;2023-03-04T10:46:10;7.20;;;2.60;;
3253;SDS011;1639;42.804;23.342;2023-03-04T10:48:37;6.40;;;2.80;;
3253;SDS011;1639;42.804;23.342;2023-03-04T10:51:19;6.43;;;2.60;;
3253;SDS011;1639;42.804;23.342;2023-03-04T10:53:48;8.27;;;3.70;;
3253;SDS011;1639;42.804;23.342;2023-03-04T10:56:29;5.73;;;2.33;;
3253;SDS011;1639;42.804;23.342;2023-03-04T11:01:54;5.00;;;1.70;;
3253;SDS011;1639;42.804;23.342;2023-03-04T11:04:22;7.03;;;3.00;;
3253;SDS011;1639;42.804;23.342;2023-03-04T11:06:51;5.10;;;1.70;;
3253;SDS011;1639;42.804;23.342;2023-03-04T11:09:24;6.27;;;1.97;;
3253;SDS011;1639;42.804;23.342;2023-03-04T11:11:53;11.00;;;2.60;;
3253;SDS011;1639;42.804;23.342;2023-03-04T11:14:24;5.40;;;2.00;;
3253;SDS011;1639;42.804;23.342;2023-03-04T11:19:22;6.40;;;2.30;;
3253;SDS011;1639;42.804;23.342;2023-03-04T11:21:53;5.20;;;2.17;;
3253;SDS011;1639;42.804;23.342;2023-03-04T11:24:24;9.47;;;2.97;;
3253;SDS011;1639;42.804;23.342;2023-03-04T11:27:00;5.93;;;2.97;;
3253;SDS011;1639;42.804;23.342;2023-03-04T11:31:59;5.43;;;2.13;;
3253;SDS011;1639;42.804;23.342;2023-03-04T11:34:44;5.60;;;2.43;;
3253;SDS011;1639;42.804;23.342;2023-03-04T11:40:07;6.37;;;2.57;;
3253;SDS011;1639;42.804;23.342;2023-03-04T11:42:40;13.63;;;4.63;;
3253;SDS011;1639;42.804;23.342;2023-03-04T11:45:13;9.23;;;2.27;;
3253;SDS011;1639;42.804;23.342;2023-03-04T11:47:43;5.33;;;2.20;;
3253;SDS011;1639;42.804;23.342;2023-03-04T11:53:19;5.20;;;2.30;;
3253;SDS011;1639;42.804;23.342;2023-03-04T12:04:48;5.60;;;2.77;;
3253;SDS011;1639;42.804;23.342;2023-03-04T12:12:34;8.90;;;4.13;;
3253;SDS011;1639;42.804;23.342;2023-03-04T12:15:19;7.60;;;2.93;;
3253;SDS011;1639;42.804;23.342;2023-03-04T12:25:59;5.27;;;2.20;;
3253;SDS011;1639;42.804;23.342;2023-03-04T12:36:49;6.73;;;2.20;;
3253;SDS011;1639;42.804;23.342;2023-03-04T12:52:43;10.50;;;2.97;;
3253;SDS011;1639;42.804;23.342;2023-03-04T12:55:35;5.07;;;1.80;;
3253;SDS011;1639;42.804;23.342;2023-03-04T12:58:02;6.17;;;2.33;;
3253;SDS011;1639;42.804;23.342;2023-03-04T13:00:42;5.90;;;2.50;;
3253;SDS011;1639;42.804;23.342;2023-03-04T13:06:38;10.47;;;2.57;;
3253;SDS011;1639;42.804;23.342;2023-03-04T13:09:15;12.50;;;2.77;;
3253;SDS011;1639;42.804;23.342;2023-03-04T13:11:52;5.67;;;2.70;;
3253;SDS011;1639;42.804;23.342;2023-03-04T13:14:26;7.07;;;3.87;;
3253;SDS011;1639;42.804;23.342;2023-03-04T13:16:57;6.50;;;3.27;;
3253;SDS011;1639;42.804;23.342;2023-03-04T13:30:41;5.10;;;1.97;;
3253;SDS011;1639;42.804;23.342;2023-03-04T13:36:02;6.50;;;2.57;;
3253;SDS011;1639;42.804;23.342;2023-03-04T13:38:59;5.40;;;1.97;;
3253;SDS011;1639;42.804;23.342;2023-03-04T13:41:50;5.30;;;2.13;;
3253;SDS011;1639;42.804;23.342;2023-03-04T13:44:31;5.93;;;3.10;;
3253;SDS011;1639;42.804;23.342;2023-03-04T13:46:57;7.33;;;2.47;;
3253;SDS011;1639;42.804;23.342;2023-03-04T13:49:31;5.50;;;2.77;;
3253;SDS011;1639;42.804;23.342;2023-03-04T13:51:56;6.10;;;2.80;;
3253;SDS011;1639;42.804;23.342;2023-03-04T13:54:32;9.00;;;3.40;;
3253;SDS011;1639;42.804;23.342;2023-03-04T13:57:14;9.23;;;3.90;;
3253;SDS011;1639;42.804;23.342;2023-03-04T13:59:43;12.47;;;2.43;;
3253;SDS011;1639;42.804;23.342;2023-03-04T14:02:13;7.40;;;3.10;;
3253;SDS011;1639;42.804;23.342;2023-03-04T14:07:36;5.00;;;2.03;;
3253;SDS011;1639;42.804;23.342;2023-03-04T14:15:27;20.80;;;4.03;;
3253;SDS011;1639;42.804;23.342;2023-03-04T14:17:58;5.50;;;2.67;;
3253;SDS011;1639;42.804;23.342;2023-03-04T14:23:02;5.83;;;3.13;;
3253;SDS011;1639;42.804;23.342;2023-03-04T14:25:46;8.03;;;4.57;;
3253;SDS011;1639;42.804;23.342;2023-03-04T14:28:12;5.50;;;2.40;;
3253;SDS011;1639;42.804;23.342;2023-03-04T14:30:40;7.67;;;3.60;;
3253;SDS011;1639;42.804;23.342;2023-03-04T14:33:08;6.17;;;3.33;;
3253;SDS011;1639;42.804;23.342;2023-03-04T14:35:39;5.90;;;3.70;;
3253;SDS011;1639;42.804;23.342;2023-03-04T14:40:47;9.10;;;3.23;;
3253;SDS011;1639;42.804;23.342;2023-03-04T14:43:21;5.57;;;2.50;;
3253;SDS011;1639;42.804;23.342;2023-03-04T14:45:48;9.43;;;3.47;;
3253;SDS011;1639;42.804;23.342;2023-03-04T14:48:18;11.00;;;4.60;;
3253;SDS011;1639;42.804;23.342;2023-03-04T14:50:49;6.23;;;3.50;;
3253;SDS011;1639;42.804;23.342;2023-03-04T14:53:17;5.40;;;2.53;;
3253;SDS011;1639;42.804;23.342;2023-03-04T14:55:54;6.50;;;3.20;;
3253;SDS011;1639;42.804;23.342;2023-03-04T14:58:26;8.20;;;4.10;;
3253;SDS011;1639;42.804;23.342;2023-03-04T15:03:39;10.40;;;2.90;;
3253;SDS011;1639;42.804;23.342;2023-03-04T15:06:14;6.93;;;2.90;;
3253;SDS011;1639;42.804;23.342;2023-03-04T15:08:40;6.10;;;2.87;;
3253;SDS011;1639;42.804;23.342;2023-03-04T15:11:06;9.57;;;4.43;;
3253;SDS011;1639;42.804;23.342;2023-03-04T15:13:36;5.30;;;2.50;;
3253;SDS011;1639;42.804;23.342;2023-03-04T15:16:07;7.23;;;2.80;;
3253;SDS011;1639;42.804;23.342;2023-03-04T15:18:34;9.30;;;3.00;;
3253;SDS011;1639;42.804;23.342;2023-03-04T15:21:01;5.93;;;2.60;;
3253;SDS011;1639;42.804;23.342;2023-03-04T15:23:30;8.50;;;2.70;;
3253;SDS011;1639;42.804;23.342;2023-03-04T15:26:00;7.60;;;4.10;;
3253;SDS011;1639;42.804;23.342;2023-03-04T15:28:33;12.50;;;2.60;;
3253;SDS011;1639;42.804;23.342;2023-03-04T15:31:00;5.97;;;2.83;;
3253;SDS011;1639;42.804;23.342;2023-03-04T15:33:25;6.00;;;3.70;;
3253;SDS011;1639;42.804;23.342;2023-03-04T15:35:52;7.27;;;4.10;;
3253;SDS011;1639;42.804;23.342;2023-03-04T15:38:21;9.83;;;4.17;;
3253;SDS011;1639;42.804;23.342;2023-03-04T15:40:46;7.23;;;2.50;;
3253;SDS011;1639;42.804;23.342;2023-03-04T15:43:13;5.83;;;2.67;;
3253;SDS011;1639;42.804;23.342;2023-03-04T15:45:40;11.13;;;5.30;;
3253;SDS011;1639;42.804;23.342;2023-03-04T15:48:07;8.07;;;4.53;;
3253;SDS011;1639;42.804;23.342;2023-03-04T15:50:36;8.60;;;3.80;;
3253;SDS011;1639;42.804;23.342;2023-03-04T15:53:06;5.70;;;3.20;;
3253;SDS011;1639;42.804;23.342;2023-03-04T15:55:36;6.10;;;2.80;;
3253;SDS011;1639;42.804;23.342;2023-03-04T15:58:01;10.50;;;2.73;;
3253;SDS011;1639;42.804;23.342;2023-03-04T16:00:27;6.17;;;3.00;;
3253;SDS011;1639;42.804;23.342;2023-03-04T16:02:53;10.47;;;4.37;;
3253;SDS011;1639;42.804;23.342;2023-03-04T16:05:18;9.57;;;4.73;;
3253;SDS011;1639;42.804;23.342;2023-03-04T16:07:46;8.63;;;4.10;;
3253;SDS011;1639;42.804;23.342;2023-03-04T16:10:31;5.87;;;3.60;;
3253;SDS011;1639;42.804;23.342;2023-03-04T16:12:57;9.53;;;4.50;;
3253;SDS011;1639;42.804;23.342;2023-03-04T16:15:27;14.90;;;10.27;;
3253;SDS011;1639;42.804;23.342;2023-03-04T16:17:54;14.87;;;7.43;;
3253;SDS011;1639;42.804;23.342;2023-03-04T16:20:21;9.63;;;5.67;;
3253;SDS011;1639;42.804;23.342;2023-03-04T16:22:49;7.93;;;3.80;;
3253;SDS011;1639;42.804;23.342;2023-03-04T16:25:18;6.93;;;3.13;;
3253;SDS011;1639;42.804;23.342;2023-03-04T16:27:44;7.20;;;4.10;;
3253;SDS011;1639;42.804;23.342;2023-03-04T16:30:14;14.40;;;8.80;;
3253;SDS011;1639;42.804;23.342;2023-03-04T16:32:41;12.23;;;8.43;;
3253;SDS011;1639;42.804;23.342;2023-03-04T16:35:07;23.53;;;9.20;;
3253;SDS011;1639;42.804;23.342;2023-03-04T16:37:33;18.33;;;11.03;;
3253;SDS011;1639;42.804;23.342;2023-03-04T16:39:58;44.23;;;10.70;;
3253;SDS011;1639;42.804;23.342;2023-03-04T16:42:24;17.63;;;8.30;;
3253;SDS011;1639;42.804;23.342;2023-03-04T16:44:51;26.80;;;10.60;;
3253;SDS011;1639;42.804;23.342;2023-03-04T16:47:17;12.33;;;11.20;;
3253;SDS011;1639;42.804;23.342;2023-03-04T16:49:42;27.67;;;10.50;;
3253;SDS011;1639;42.804;23.342;2023-03-04T16:52:13;16.67;;;7.60;;
3253;SDS011;1639;42.804;23.342;2023-03-04T16:54:51;8.67;;;6.10;;
3253;SDS011;1639;42.804;23.342;2023-03-04T16:57:17;14.50;;;5.40;;
3253;SDS011;1639;42.804;23.342;2023-03-04T16:59:43;10.57;;;5.73;;